Time;durP1;ratioP1;P1;durP2;ratioP2;P2;SDS_P1;SDS_P2;PMS_P1;PMS_P2;Temp;Humidity;BMP_temperature;BMP_pressure;BME280_temperature;BME280_humidity;BME280_pressure;Samples;Min_cycle;Max_cycle;Signal;HPM_P1;HPM_P2
2023/11/30 00:02:26;;;;;;;4.80;2.78;;;1.20;70.50;;;;;;5032934;28;20279;-72
2023/11/30 00:04:53;;;;;;;2.92;2.08;;;1.10;70.50;;;;;;5033302;28;20277;-73
2023/11/30 00:07:20;;;;;;;3.38;2.00;;;1.10;70.50;;;;;;5033572;28;20278;-73
2023/11/30 00:09:47;;;;;;;4.43;2.33;;;1.10;70.50;;;;;;5033573;28;20278;-73
2023/11/30 00:12:14;;;;;;;6.03;3.38;;;1.20;70.60;;;;;;5033285;28;20717;-73
2023/11/30 00:14:42;;;;;;;5.32;2.15;;;1.30;70.50;;;;;;5032912;28;20287;-72
2023/11/30 00:17:09;;;;;;;6.00;2.72;;;1.30;70.40;;;;;;5033312;28;20642;-73
2023/11/30 00:19:36;;;;;;;3.85;2.22;;;1.30;69.80;;;;;;5033158;28;20267;-73
2023/11/30 00:22:03;;;;;;;4.07;2.33;;;1.30;69.60;;;;;;5033115;28;20198;-72
2023/11/30 00:24:30;;;;;;;4.95;2.28;;;1.30;69.80;;;;;;5033483;28;20254;-73
2023/11/30 00:26:57;;;;;;;4.47;1.92;;;1.30;70.10;;;;;;5032673;28;20271;-79
2023/11/30 00:29:24;;;;;;;4.18;2.15;;;1.30;70.40;;;;;;5033040;28;20278;-73
2023/11/30 00:31:52;;;;;;;5.25;2.55;;;1.30;71.00;;;;;;5033369;28;20188;-73
2023/11/30 00:34:20;;;;;;;4.90;2.30;;;1.30;70.90;;;;;;5033347;28;20227;-73
2023/11/30 00:36:46;;;;;;;3.28;1.88;;;1.30;70.70;;;;;;5032830;28;20303;-72
2023/11/30 00:39:13;;;;;;;3.50;1.65;;;1.30;71.00;;;;;;5032550;28;20274;-72
2023/11/30 00:41:40;;;;;;;7.10;2.60;;;1.30;71.00;;;;;;5033348;28;20557;-72
2023/11/30 00:44:07;;;;;;;4.53;1.90;;;1.40;71.10;;;;;;5033184;28;20246;-72
2023/11/30 00:46:34;;;;;;;2.80;1.52;;;1.50;70.70;;;;;;5032903;28;20561;-72
2023/11/30 00:49:02;;;;;;;4.10;2.03;;;1.40;70.30;;;;;;5033184;28;20192;-73
2023/11/30 00:51:29;;;;;;;3.55;2.03;;;1.40;70.40;;;;;;5022161;28;20297;-73
2023/11/30 00:53:56;;;;;;;4.25;2.25;;;1.40;70.70;;;;;;5015404;28;20260;-73
2023/11/30 00:56:23;;;;;;;3.85;1.83;;;1.40;71.00;;;;;;5015620;28;20307;-72
2023/11/30 00:58:50;;;;;;;4.05;2.40;;;1.40;70.70;;;;;;5015787;28;20192;-73
2023/11/30 01:01:17;;;;;;;3.17;1.60;;;1.50;70.60;;;;;;5016109;28;20227;-73
2023/11/30 01:03:44;;;;;;;4.22;2.30;;;1.50;70.60;;;;;;5015507;28;20275;-73
2023/11/30 01:06:12;;;;;;;2.80;1.55;;;1.50;70.50;;;;;;5015656;28;20291;-73
2023/11/30 01:08:39;;;;;;;5.78;2.70;;;1.50;70.50;;;;;;5015794;28;20228;-73
2023/11/30 01:11:07;;;;;;;2.75;1.70;;;1.40;70.40;;;;;;5015878;28;20188;-73
2023/11/30 01:13:34;;;;;;;5.15;1.80;;;1.50;70.60;;;;;;5015944;28;20191;-72
2023/11/30 01:16:01;;;;;;;7.60;2.15;;;1.50;70.60;;;;;;5015857;28;20212;-73
2023/11/30 01:18:27;;;;;;;3.15;1.95;;;1.50;70.50;;;;;;5016099;28;20291;-73
2023/11/30 01:20:54;;;;;;;3.05;1.85;;;1.50;70.80;;;;;;5015887;28;20284;-73
2023/11/30 01:23:23;;;;;;;5.18;2.65;;;1.50;71.10;;;;;;5015541;28;20203;-72
2023/11/30 01:25:50;;;;;;;4.43;2.47;;;1.50;71.10;;;;;;5016789;28;20274;-73
2023/11/30 01:28:17;;;;;;;3.90;2.30;;;1.50;71.30;;;;;;5015689;28;20200;-72
2023/11/30 01:30:44;;;;;;;5.53;3.03;;;1.50;71.40;;;;;;5015585;28;20662;-72
2023/11/30 01:33:13;;;;;;;6.00;2.63;;;1.40;71.70;;;;;;5015344;28;20678;-73
2023/11/30 01:35:40;;;;;;;5.88;3.13;;;1.50;72.00;;;;;;5015461;28;20294;-73
2023/11/30 01:38:07;;;;;;;12.18;5.57;;;1.50;71.90;;;;;;5015344;28;20237;-73
2023/11/30 01:40:35;;;;;;;8.73;4.10;;;1.40;71.80;;;;;;5015378;28;20228;-73
2023/11/30 01:43:05;;;;;;;8.07;2.83;;;1.50;72.10;;;;;;5015571;28;20196;-73
2023/11/30 01:45:33;;;;;;;5.18;2.70;;;1.50;72.00;;;;;;5015503;28;20267;-73
2023/11/30 01:48:00;;;;;;;7.88;2.70;;;1.50;71.80;;;;;;5015349;28;20206;-73
2023/11/30 01:50:28;;;;;;;6.32;2.42;;;1.40;71.20;;;;;;5015142;28;20188;-73
2023/11/30 01:52:55;;;;;;;3.80;2.17;;;1.50;71.20;;;;;;4974934;28;1169871;-73
2023/11/30 01:55:22;;;;;;;4.20;2.50;;;1.50;71.30;;;;;;5016564;28;20227;-73
2023/11/30 01:57:51;;;;;;;3.50;2.00;;;1.50;71.30;;;;;;5016684;28;20246;-73
2023/11/30 02:00:19;;;;;;;4.32;2.75;;;1.50;71.40;;;;;;5016270;28;20280;-73
2023/11/30 02:02:46;;;;;;;3.85;1.75;;;1.50;71.00;;;;;;5015984;28;20739;-73
2023/11/30 02:05:13;;;;;;;6.78;1.88;;;1.50;70.90;;;;;;5016181;28;20251;-73
2023/11/30 02:07:40;;;;;;;5.43;3.42;;;1.40;71.10;;;;;;5016078;28;20279;-75
2023/11/30 02:10:08;;;;;;;6.22;2.38;;;1.40;71.60;;;;;;5016050;28;20291;-72
2023/11/30 02:12:35;;;;;;;3.40;1.50;;;1.30;71.90;;;;;;5016149;28;20188;-73
2023/11/30 02:15:04;;;;;;;3.38;2.03;;;1.40;72.20;;;;;;5016107;28;20223;-73
2023/11/30 02:17:31;;;;;;;4.10;2.47;;;1.50;72.00;;;;;;5015895;28;20223;-73
2023/11/30 02:19:58;;;;;;;3.25;2.28;;;1.40;71.40;;;;;;5016350;28;20275;-72
2023/11/30 02:22:26;;;;;;;3.83;2.20;;;1.40;71.40;;;;;;5016101;28;20278;-73
2023/11/30 02:24:53;;;;;;;4.30;2.42;;;1.40;71.50;;;;;;5015603;28;20279;-73
2023/11/30 02:27:20;;;;;;;3.83;2.35;;;1.40;71.50;;;;;;5015626;28;20284;-73
2023/11/30 02:29:47;;;;;;;3.70;2.00;;;1.40;71.60;;;;;;5015409;28;20741;-73
2023/11/30 02:32:14;;;;;;;3.22;1.77;;;1.40;72.00;;;;;;5022018;28;20187;-73
2023/11/30 02:34:41;;;;;;;3.40;1.70;;;1.40;72.40;;;;;;5034936;28;20230;-72
2023/11/30 02:37:10;;;;;;;3.60;1.83;;;1.40;72.50;;;;;;5035440;28;20571;-72
2023/11/30 02:39:38;;;;;;;3.80;2.30;;;1.40;72.70;;;;;;5035160;28;20709;-73
2023/11/30 02:42:06;;;;;;;3.38;2.10;;;1.40;72.70;;;;;;5033395;28;20270;-72
2023/11/30 02:44:33;;;;;;;2.60;1.48;;;1.50;72.70;;;;;;5035088;28;20660;-73
2023/11/30 02:46:59;;;;;;;4.60;2.13;;;1.50;72.60;;;;;;5035062;28;20222;-73
2023/11/30 02:49:26;;;;;;;4.13;2.78;;;1.50;72.50;;;;;;5035449;28;20277;-73
2023/11/30 02:51:53;;;;;;;4.80;1.65;;;1.50;72.50;;;;;;5035167;28;20196;-72
2023/11/30 02:54:20;;;;;;;2.90;1.67;;;1.60;72.40;;;;;;5019995;28;20332;-73
2023/11/30 02:56:48;;;;;;;5.38;2.00;;;1.50;72.00;;;;;;5015357;28;20311;-74
2023/11/30 02:59:15;;;;;;;4.18;1.30;;;1.50;71.90;;;;;;5014877;28;20279;-73
2023/11/30 03:01:46;;;;;;;3.80;1.85;;;1.50;71.90;;;;;;5015027;28;20279;-72
2023/11/30 03:04:13;;;;;;;3.75;1.75;;;1.60;72.00;;;;;;5015238;28;20271;-73
2023/11/30 03:06:40;;;;;;;3.30;2.17;;;1.50;72.00;;;;;;5014974;28;20287;-73
2023/11/30 03:09:08;;;;;;;3.50;1.65;;;1.50;71.80;;;;;;5014902;28;20666;-73
2023/11/30 03:11:35;;;;;;;3.97;1.92;;;1.50;71.70;;;;;;5014905;28;20650;-73
2023/11/30 03:14:03;;;;;;;3.72;1.40;;;1.50;71.70;;;;;;5031153;28;20282;-73
2023/11/30 03:16:30;;;;;;;4.45;1.83;;;1.50;71.90;;;;;;5019801;28;20208;-72
2023/11/30 03:18:57;;;;;;;4.68;2.30;;;1.50;72.30;;;;;;5014742;28;20234;-72
2023/11/30 03:21:24;;;;;;;3.05;1.27;;;1.50;72.30;;;;;;5015011;28;20282;-72
2023/11/30 03:23:51;;;;;;;7.38;2.60;;;1.60;72.40;;;;;;5014456;28;20659;-73
2023/11/30 03:26:18;;;;;;;3.05;1.50;;;1.50;72.40;;;;;;5014911;28;20625;-72
2023/11/30 03:28:46;;;;;;;3.50;1.48;;;1.50;72.90;;;;;;5014603;28;20279;-72
2023/11/30 03:31:14;;;;;;;3.85;1.20;;;1.60;73.20;;;;;;5014935;28;20232;-72
2023/11/30 03:33:42;;;;;;;2.20;1.00;;;1.60;72.80;;;;;;5014736;28;20192;-73
2023/11/30 03:36:09;;;;;;;10.38;2.47;;;1.60;73.00;;;;;;5014915;28;20624;-72
2023/11/30 03:38:39;;;;;;;2.38;1.27;;;1.60;73.10;;;;;;5014397;28;20666;-73
2023/11/30 03:41:06;;;;;;;2.70;1.48;;;1.60;72.90;;;;;;5014737;28;20315;-73
2023/11/30 03:43:33;;;;;;;4.25;1.65;;;1.60;72.60;;;;;;5014433;28;20204;-72
2023/11/30 03:46:00;;;;;;;2.97;1.30;;;1.60;72.80;;;;;;5014139;28;20282;-72
2023/11/30 03:48:28;;;;;;;3.15;1.90;;;1.60;72.70;;;;;;5026393;28;20737;-72
2023/11/30 03:50:55;;;;;;;5.43;1.95;;;1.60;72.80;;;;;;5034402;28;20312;-73
2023/11/30 03:53:22;;;;;;;2.72;1.60;;;1.60;72.80;;;;;;5034038;28;20314;-73
2023/11/30 03:55:49;;;;;;;4.88;1.88;;;1.60;72.90;;;;;;5034053;28;20233;-72
2023/11/30 03:58:16;;;;;;;4.00;1.80;;;1.60;73.10;;;;;;5033178;28;20283;-73
2023/11/30 04:00:42;;;;;;;2.70;1.40;;;1.50;74.10;;;;;;5033747;28;20713;-72
2023/11/30 04:03:09;;;;;;;2.83;1.52;;;1.60;73.60;;;;;;5033711;28;20191;-72
2023/11/30 04:05:38;;;;;;;2.70;1.17;;;1.60;73.30;;;;;;5033899;28;20274;-73
2023/11/30 04:08:05;;;;;;;2.97;1.48;;;1.60;73.20;;;;;;5033567;28;20238;-73
2023/11/30 04:10:32;;;;;;;3.00;1.50;;;1.60;73.00;;;;;;5033415;28;20183;-72
2023/11/30 04:12:59;;;;;;;3.08;1.77;;;1.60;73.30;;;;;;5033678;28;20197;-72
2023/11/30 04:15:26;;;;;;;3.33;1.80;;;1.60;73.50;;;;;;5033771;28;20299;-73
2023/11/30 04:17:53;;;;;;;2.63;1.67;;;1.60;73.60;;;;;;5033028;28;20251;-73
2023/11/30 04:20:20;;;;;;;3.13;1.02;;;1.60;73.60;;;;;;5033369;28;20238;-72
2023/11/30 04:22:48;;;;;;;4.45;1.92;;;1.60;73.60;;;;;;5032844;28;20646;-72
2023/11/30 04:25:15;;;;;;;2.97;1.30;;;1.60;73.20;;;;;;5033702;28;20283;-73
2023/11/30 04:27:42;;;;;;;3.97;1.25;;;1.60;73.30;;;;;;5033072;28;20286;-73
2023/11/30 04:30:09;;;;;;;6.22;2.00;;;1.60;73.10;;;;;;5033420;28;20645;-72
2023/11/30 04:32:36;;;;;;;3.08;1.42;;;1.60;72.80;;;;;;5033160;28;20188;-72
2023/11/30 04:35:06;;;;;;;2.47;1.30;;;1.60;72.60;;;;;;5032876;28;20278;-74
2023/11/30 04:37:33;;;;;;;3.38;1.38;;;1.60;72.60;;;;;;5033148;28;20350;-73
2023/11/30 04:40:01;;;;;;;2.90;1.33;;;1.50;72.70;;;;;;5033082;28;20202;-72
2023/11/30 04:42:28;;;;;;;2.80;1.40;;;1.60;73.10;;;;;;5032979;28;20227;-73
2023/11/30 04:44:55;;;;;;;5.85;1.67;;;1.60;73.10;;;;;;5033367;28;20281;-73
2023/11/30 04:47:22;;;;;;;2.80;1.60;;;1.60;73.20;;;;;;5033357;28;20286;-73
2023/11/30 04:49:49;;;;;;;3.50;1.83;;;1.70;73.00;;;;;;5033030;28;20286;-73
2023/11/30 04:52:16;;;;;;;3.78;2.45;;;1.70;73.00;;;;;;5032961;28;20539;-73
2023/11/30 04:54:43;;;;;;;5.38;2.65;;;1.70;73.20;;;;;;5033338;28;20227;-72
2023/11/30 04:57:12;;;;;;;6.65;2.95;;;1.70;73.40;;;;;;5033254;28;20302;-73
2023/11/30 04:59:40;;;;;;;3.60;1.90;;;1.80;73.40;;;;;;5033253;28;20199;-73
2023/11/30 05:02:08;;;;;;;4.78;2.25;;;1.80;72.60;;;;;;5033273;28;20194;-73
2023/11/30 05:04:37;;;;;;;5.30;2.95;;;1.80;72.80;;;;;;5032985;28;20589;-73
2023/11/30 05:07:04;;;;;;;3.53;2.20;;;1.80;72.30;;;;;;5033359;28;20230;-72
2023/11/30 05:09:31;;;;;;;5.30;2.88;;;1.80;72.40;;;;;;5032745;28;20288;-73
2023/11/30 05:11:58;;;;;;;4.93;3.35;;;1.80;72.60;;;;;;5033229;28;20195;-72
2023/11/30 05:14:26;;;;;;;6.25;2.72;;;1.80;72.80;;;;;;5033258;28;20278;-73
2023/11/30 05:16:53;;;;;;;4.70;2.75;;;1.80;72.80;;;;;;5032238;28;20266;-72
2023/11/30 05:19:20;;;;;;;8.10;3.42;;;1.80;72.50;;;;;;5033164;28;20282;-73
2023/11/30 05:21:47;;;;;;;4.00;2.33;;;1.80;72.50;;;;;;5032864;28;20283;-72
2023/11/30 05:24:14;;;;;;;4.03;2.03;;;1.80;72.20;;;;;;5033143;28;20230;-73
2023/11/30 05:26:41;;;;;;;3.78;1.85;;;1.90;72.40;;;;;;5032756;28;20287;-72
2023/11/30 05:29:08;;;;;;;6.32;2.40;;;1.90;72.50;;;;;;5032109;28;20654;-72
2023/11/30 05:31:36;;;;;;;3.78;2.53;;;1.80;72.30;;;;;;5033030;28;20617;-74
2023/11/30 05:34:03;;;;;;;3.20;1.95;;;1.80;72.60;;;;;;5032996;28;20386;-73
2023/11/30 05:36:30;;;;;;;4.95;3.03;;;1.80;72.80;;;;;;5019738;28;20295;-73
2023/11/30 05:38:58;;;;;;;4.70;2.45;;;1.90;72.90;;;;;;5014266;28;20286;-80
2023/11/30 05:41:25;;;;;;;4.22;1.98;;;1.90;72.80;;;;;;5016520;28;20670;-74
2023/11/30 05:43:52;;;;;;;3.72;2.13;;;1.90;72.60;;;;;;5016811;28;20287;-73
2023/11/30 05:46:19;;;;;;;3.55;2.05;;;1.90;72.40;;;;;;5016497;28;20247;-73
2023/11/30 05:48:47;;;;;;;6.47;2.60;;;1.90;72.60;;;;;;5016369;28;20203;-72
2023/11/30 05:51:14;;;;;;;8.07;5.07;;;1.90;72.50;;;;;;5025484;28;20278;-73
2023/11/30 05:53:41;;;;;;;8.20;5.28;;;2.00;72.60;;;;;;5035921;28;20333;-73
2023/11/30 05:56:09;;;;;;;4.93;3.88;;;2.00;72.20;;;;;;5035687;28;20616;-72
2023/11/30 05:58:36;;;;;;;7.10;3.90;;;1.90;71.90;;;;;;5036123;28;20278;-72
2023/11/30 06:01:05;;;;;;;9.98;5.90;;;1.90;71.80;;;;;;5035863;28;20278;-72
2023/11/30 06:03:31;;;;;;;10.98;4.45;;;1.90;72.10;;;;;;5026639;28;20192;-72
2023/11/30 06:06:00;;;;;;;7.78;4.00;;;2.00;72.40;;;;;;5016262;28;20283;-73
2023/11/30 06:08:27;;;;;;;6.20;3.15;;;2.00;72.10;;;;;;5031895;28;20288;-72
2023/11/30 06:10:54;;;;;;;7.57;2.67;;;2.00;72.30;;;;;;5033947;28;20718;-73
2023/11/30 06:13:25;;;;;;;4.93;2.17;;;2.00;72.60;;;;;;5035863;28;20195;-72
2023/11/30 06:15:54;;;;;;;3.38;2.13;;;2.00;72.70;;;;;;5035882;28;20192;-77
2023/11/30 06:18:21;;;;;;;5.40;2.40;;;2.00;72.80;;;;;;5022315;28;20230;-83
2023/11/30 06:20:48;;;;;;;4.72;1.48;;;2.10;72.60;;;;;;5033734;28;20286;-72
2023/11/30 06:23:16;;;;;;;3.28;1.83;;;2.10;72.50;;;;;;5033762;28;20194;-73
2023/11/30 06:25:43;;;;;;;3.08;1.80;;;2.10;72.50;;;;;;5032894;28;20279;-74
2023/11/30 06:28:12;;;;;;;4.38;1.40;;;2.00;72.50;;;;;;5033419;28;20378;-77
2023/11/30 06:30:39;;;;;;;3.70;1.50;;;2.00;73.00;;;;;;5033894;28;20196;-73
2023/11/30 06:33:06;;;;;;;2.80;1.52;;;2.00;73.40;;;;;;5033659;28;20195;-73
2023/11/30 06:35:33;;;;;;;3.40;1.60;;;2.10;73.70;;;;;;5033607;28;20219;-72
2023/11/30 06:38:00;;;;;;;4.60;1.70;;;2.10;73.50;;;;;;5033817;28;20314;-73
2023/11/30 06:40:29;;;;;;;2.85;1.10;;;2.10;73.60;;;;;;5033575;28;20278;-73
2023/11/30 06:42:55;;;;;;;3.08;1.60;;;2.10;73.70;;;;;;5033812;28;20245;-73
2023/11/30 06:45:22;;;;;;;4.18;2.03;;;2.10;73.60;;;;;;5033415;28;20286;-72
2023/11/30 06:47:49;;;;;;;2.90;1.40;;;2.10;73.70;;;;;;5033727;28;20238;-73
2023/11/30 06:50:16;;;;;;;2.72;1.30;;;2.10;73.50;;;;;;5029671;28;20294;-73
2023/11/30 06:52:43;;;;;;;2.55;1.23;;;2.20;73.30;;;;;;5026290;28;20670;-73
2023/11/30 06:55:10;;;;;;;3.28;1.45;;;2.10;73.00;;;;;;5032882;28;20709;-73
2023/11/30 06:57:40;;;;;;;2.85;1.30;;;2.10;73.00;;;;;;5033418;28;20230;-73
2023/11/30 07:00:10;;;;;;;3.20;1.33;;;2.10;73.20;;;;;;5033368;28;20538;-73
2023/11/30 07:02:37;;;;;;;2.30;1.17;;;2.20;73.80;;;;;;5032675;28;20241;-73
2023/11/30 07:05:05;;;;;;;2.30;1.40;;;2.20;73.40;;;;;;5032691;28;20282;-74
2023/11/30 07:07:32;;;;;;;2.85;1.30;;;2.20;73.30;;;;;;5031069;28;20764;-74
2023/11/30 07:09:59;;;;;;;2.67;1.52;;;2.20;73.30;;;;;;5028289;28;20226;-73
2023/11/30 07:12:26;;;;;;;2.88;1.70;;;2.30;73.30;;;;;;5031744;28;20197;-76
2023/11/30 07:14:54;;;;;;;3.40;1.85;;;2.30;73.00;;;;;;5027714;28;20278;-73
2023/11/30 07:17:23;;;;;;;4.20;2.05;;;2.20;73.00;;;;;;5032148;28;20226;-73
2023/11/30 07:19:50;;;;;;;4.13;2.63;;;2.30;73.30;;;;;;5025911;28;20237;-73
2023/11/30 07:22:17;;;;;;;4.78;2.13;;;2.30;72.90;;;;;;5028033;28;20270;-73
2023/11/30 07:24:46;;;;;;;5.10;2.80;;;2.30;72.50;;;;;;5029183;28;20634;-73
2023/11/30 07:27:16;;;;;;;4.68;2.28;;;2.20;72.70;;;;;;5031577;28;20222;-73
2023/11/30 07:29:43;;;;;;;3.70;1.98;;;2.30;73.00;;;;;;5031774;28;20334;-73
2023/11/30 07:32:11;;;;;;;5.05;2.72;;;2.30;72.80;;;;;;5031483;28;20230;-73
2023/11/30 07:34:38;;;;;;;6.35;3.22;;;2.30;72.40;;;;;;5031534;28;20286;-73
2023/11/30 07:37:05;;;;;;;6.00;3.50;;;2.30;72.10;;;;;;5031741;28;20222;-73
2023/11/30 07:39:32;;;;;;;5.68;3.42;;;2.30;72.40;;;;;;5029463;28;20198;-73
2023/11/30 07:41:59;;;;;;;5.60;3.42;;;2.30;72.40;;;;;;5031471;28;20199;-73
2023/11/30 07:44:27;;;;;;;5.40;4.18;;;2.30;72.50;;;;;;5029411;28;20295;-73
2023/11/30 07:46:54;;;;;;;5.75;2.70;;;2.40;72.70;;;;;;5032154;28;20191;-73
2023/11/30 07:49:22;;;;;;;5.70;3.13;;;2.40;72.90;;;;;;5031006;28;20284;-74
2023/11/30 07:51:49;;;;;;;6.00;2.67;;;2.50;72.90;;;;;;5031555;28;20249;-73
2023/11/30 07:54:16;;;;;;;7.65;4.75;;;2.50;72.50;;;;;;5031110;28;20743;-73
2023/11/30 07:56:43;;;;;;;6.00;3.30;;;2.50;72.70;;;;;;5031373;28;20686;-73
2023/11/30 07:59:12;;;;;;;6.00;2.95;;;2.50;72.00;;;;;;5031202;28;20215;-73
2023/11/30 08:01:39;;;;;;;4.90;2.05;;;2.50;71.90;;;;;;5028241;28;20200;-73
2023/11/30 08:04:06;;;;;;;4.28;2.22;;;2.50;72.10;;;;;;5028872;28;20294;-79
2023/11/30 08:06:34;;;;;;;4.97;2.80;;;2.50;71.90;;;;;;5027241;28;20290;-74
2023/11/30 08:09:03;;;;;;;4.15;2.17;;;2.50;72.20;;;;;;5017955;28;20192;-73
2023/11/30 08:11:30;;;;;;;4.82;2.83;;;2.50;72.30;;;;;;5028454;28;20195;-73
2023/11/30 08:13:57;;;;;;;4.97;2.50;;;2.50;72.10;;;;;;5031228;28;20588;-73
2023/11/30 08:16:24;;;;;;;4.57;3.75;;;2.50;72.10;;;;;;5032697;28;20187;-74
2023/11/30 08:18:51;;;;;;;4.70;3.00;;;2.50;72.30;;;;;;5033172;28;20512;-73
2023/11/30 08:21:19;;;;;;;4.32;2.88;;;2.50;72.20;;;;;;5030852;28;20283;-73
2023/11/30 08:23:47;;;;;;;5.10;2.65;;;2.50;72.70;;;;;;5033299;28;20191;-73
2023/11/30 08:26:15;;;;;;;5.53;3.17;;;2.50;73.10;;;;;;5033099;28;20508;-73
2023/11/30 08:28:42;;;;;;;5.47;3.65;;;2.50;73.00;;;;;;5032947;28;20202;-73
2023/11/30 08:31:09;;;;;;;4.90;2.70;;;2.60;73.30;;;;;;5032900;28;20206;-73
2023/11/30 08:33:36;;;;;;;9.13;4.47;;;2.60;73.30;;;;;;5033094;28;20553;-73
2023/11/30 08:36:04;;;;;;;4.82;3.00;;;2.60;73.50;;;;;;5032840;28;20223;-73
2023/11/30 08:38:31;;;;;;;5.45;2.88;;;2.60;73.90;;;;;;5032699;28;20207;-73
2023/11/30 08:41:00;;;;;;;5.80;3.10;;;2.70;74.00;;;;;;5033230;28;20222;-73
2023/11/30 08:43:27;;;;;;;3.50;2.22;;;2.70;74.30;;;;;;5033114;28;20191;-73
2023/11/30 08:45:54;;;;;;;3.63;2.10;;;2.70;74.30;;;;;;5033024;28;20198;-73
2023/11/30 08:48:22;;;;;;;5.25;2.63;;;2.70;75.50;;;;;;5032646;28;20720;-73
2023/11/30 08:50:49;;;;;;;8.00;3.15;;;2.70;74.90;;;;;;5032669;28;21077;-73
2023/11/30 08:53:16;;;;;;;3.50;2.08;;;2.80;75.10;;;;;;5032697;28;20247;-73
2023/11/30 08:55:45;;;;;;;6.97;3.40;;;2.80;75.20;;;;;;5032684;28;20549;-73
2023/11/30 08:58:14;;;;;;;10.15;3.45;;;2.80;75.20;;;;;;5032894;28;20242;-73
2023/11/30 09:00:42;;;;;;;5.75;3.08;;;2.80;75.40;;;;;;5033022;28;20247;-73
2023/11/30 09:03:09;;;;;;;5.93;2.97;;;2.80;75.70;;;;;;5032951;28;20206;-73
2023/11/30 09:05:36;;;;;;;4.63;3.30;;;2.80;76.00;;;;;;5032564;28;20192;-73
2023/11/30 09:08:03;;;;;;;5.18;2.97;;;2.90;76.10;;;;;;5032587;28;20230;-73
2023/11/30 09:10:30;;;;;;;5.38;2.85;;;2.80;76.00;;;;;;5032831;28;20187;-73
2023/11/30 09:12:57;;;;;;;7.72;3.03;;;2.80;76.50;;;;;;5032747;28;20361;-73
2023/11/30 09:15:25;;;;;;;4.10;2.50;;;2.80;77.10;;;;;;5036672;28;20223;-73
2023/11/30 09:17:53;;;;;;;4.72;2.63;;;2.80;77.00;;;;;;5036606;28;20302;-73
2023/11/30 09:20:20;;;;;;;4.05;2.00;;;2.90;77.40;;;;;;5036321;28;20282;-73
2023/11/30 09:22:47;;;;;;;3.67;2.20;;;2.90;76.90;;;;;;5036634;28;20277;-73
2023/11/30 09:25:18;;;;;;;4.10;2.78;;;2.90;76.90;;;;;;5036728;28;20192;-73
2023/11/30 09:27:46;;;;;;;4.00;2.80;;;2.90;77.00;;;;;;5036653;28;20226;-72
2023/11/30 09:30:14;;;;;;;4.35;2.17;;;2.90;76.90;;;;;;5036208;28;20698;-73
2023/11/30 09:32:42;;;;;;;3.65;2.47;;;3.00;77.00;;;;;;5036661;28;20211;-73
2023/11/30 09:35:11;;;;;;;4.97;3.13;;;3.00;77.20;;;;;;5036062;28;20780;-73
2023/11/30 09:37:38;;;;;;;4.20;3.25;;;3.00;77.30;;;;;;5036306;28;20229;-73
2023/11/30 09:40:08;;;;;;;5.00;3.58;;;3.00;77.70;;;;;;5035856;28;20282;-73
2023/11/30 09:42:35;;;;;;;4.22;3.35;;;3.10;78.00;;;;;;5035890;28;20687;-73
2023/11/30 09:45:04;;;;;;;5.05;3.72;;;3.10;77.50;;;;;;5035760;28;20201;-73
2023/11/30 09:47:31;;;;;;;5.07;3.08;;;3.10;77.70;;;;;;5036128;28;20526;-73
2023/11/30 09:50:00;;;;;;;4.65;3.28;;;3.20;77.70;;;;;;5035915;28;20282;-73
2023/11/30 09:52:28;;;;;;;5.93;4.15;;;3.20;78.10;;;;;;5035569;28;20192;-73
2023/11/30 09:54:56;;;;;;;6.10;3.55;;;3.20;78.00;;;;;;5036056;28;20190;-73
2023/11/30 09:57:23;;;;;;;4.53;3.38;;;3.20;77.70;;;;;;5035872;28;20227;-73
2023/11/30 09:59:51;;;;;;;3.97;2.53;;;3.20;77.80;;;;;;5035794;28;20187;-73
2023/11/30 10:02:19;;;;;;;6.43;3.03;;;3.30;78.20;;;;;;5035889;28;20195;-73
2023/11/30 10:04:46;;;;;;;4.55;3.33;;;3.30;78.00;;;;;;5035698;28;20553;-73
2023/11/30 10:07:14;;;;;;;6.13;3.75;;;3.30;77.60;;;;;;5035878;28;20282;-79
2023/11/30 10:09:42;;;;;;;4.72;3.22;;;3.30;77.50;;;;;;5035651;28;20199;-80
2023/11/30 10:12:09;;;;;;;6.72;4.05;;;3.40;78.30;;;;;;5035420;28;20282;-73
2023/11/30 10:14:37;;;;;;;4.43;3.40;;;3.40;78.10;;;;;;5035683;28;20286;-73
2023/11/30 10:17:04;;;;;;;6.10;3.70;;;3.40;78.40;;;;;;5035592;28;20199;-73
2023/11/30 10:19:31;;;;;;;4.68;3.60;;;3.50;78.70;;;;;;5034958;28;20225;-73
2023/11/30 10:21:58;;;;;;;5.53;3.83;;;3.50;78.20;;;;;;5035101;28;20192;-73
2023/11/30 10:24:28;;;;;;;6.45;4.50;;;3.50;78.00;;;;;;5034705;28;20234;-73
2023/11/30 10:26:59;;;;;;;6.88;5.03;;;3.50;78.40;;;;;;5034945;28;20282;-73
2023/11/30 10:29:30;;;;;;;6.07;4.30;;;3.50;78.50;;;;;;5034876;28;20191;-73
2023/11/30 10:32:01;;;;;;;6.18;4.30;;;3.50;78.60;;;;;;5035467;28;20234;-73
2023/11/30 10:34:32;;;;;;;8.80;4.10;;;3.50;78.30;;;;;;5035162;28;20274;-73
2023/11/30 10:37:00;;;;;;;6.00;4.30;;;3.50;78.50;;;;;;5035118;28;20267;-73
2023/11/30 10:39:33;;;;;;;7.13;4.60;;;3.50;78.90;;;;;;5035004;28;20219;-73
2023/11/30 10:42:08;;;;;;;6.78;5.03;;;3.50;78.90;;;;;;5034859;28;20270;-73
2023/11/30 10:44:38;;;;;;;5.68;4.35;;;3.50;78.90;;;;;;5035044;28;20233;-73
2023/11/30 10:47:10;;;;;;;6.05;3.90;;;3.50;79.30;;;;;;5034844;28;20184;-73
2023/11/30 10:49:38;;;;;;;5.55;3.80;;;3.60;79.60;;;;;;5035279;28;20278;-73
2023/11/30 10:52:07;;;;;;;4.93;3.10;;;3.60;79.60;;;;;;5034719;28;20192;-74
2023/11/30 10:54:41;;;;;;;4.88;2.75;;;3.70;79.70;;;;;;5034363;28;20227;-74
2023/11/30 10:57:08;;;;;;;4.75;2.75;;;3.70;79.60;;;;;;5034864;28;20175;-74
2023/11/30 10:59:35;;;;;;;4.80;2.28;;;3.70;79.40;;;;;;5034345;28;20704;-73
2023/11/30 11:02:05;;;;;;;4.10;2.67;;;3.70;79.40;;;;;;5034697;28;20202;-73
2023/11/30 11:04:32;;;;;;;19.75;9.65;;;3.80;79.50;;;;;;5034681;28;20203;-73
2023/11/30 11:07:03;;;;;;;5.57;3.20;;;3.80;79.30;;;;;;5034562;28;20196;-75
2023/11/30 11:09:42;;;;;;;3.17;2.08;;;3.80;79.00;;;;;;5034134;28;20729;-73
2023/11/30 11:12:19;;;;;;;5.60;2.90;;;3.80;78.80;;;;;;5034603;28;20271;-73
2023/11/30 11:14:48;;;;;;;5.10;2.60;;;3.90;78.80;;;;;;5034411;28;20187;-74
2023/11/30 11:17:14;;;;;;;4.72;2.85;;;3.90;78.80;;;;;;5034360;28;20208;-73
2023/11/30 11:19:43;;;;;;;3.92;2.45;;;3.90;78.70;;;;;;5033770;28;20311;-73
2023/11/30 11:22:18;;;;;;;4.90;2.65;;;3.90;78.80;;;;;;5034142;28;20195;-73
2023/11/30 11:24:48;;;;;;;3.25;2.40;;;3.90;78.80;;;;;;5032832;28;20278;-73
2023/11/30 11:27:27;;;;;;;3.97;2.60;;;3.90;78.30;;;;;;5034277;28;20620;-75
2023/11/30 11:29:57;;;;;;;4.18;2.20;;;3.90;78.20;;;;;;5033540;28;20274;-73
2023/11/30 11:32:25;;;;;;;8.38;3.42;;;3.90;78.50;;;;;;5034038;28;20624;-73
2023/11/30 11:34:52;;;;;;;5.05;2.55;;;3.90;78.70;;;;;;5033912;28;20615;-73
2023/11/30 11:37:19;;;;;;;7.65;2.88;;;3.90;78.60;;;;;;5030335;28;20192;-73
2023/11/30 11:39:48;;;;;;;4.03;2.20;;;3.90;78.60;;;;;;5029579;28;20346;-73
2023/11/30 11:42:15;;;;;;;4.68;2.20;;;3.90;78.60;;;;;;5014863;28;20271;-74
2023/11/30 11:44:42;;;;;;;4.85;2.55;;;3.90;78.40;;;;;;5013335;28;20299;-74
2023/11/30 11:47:09;;;;;;;6.80;4.00;;;3.90;78.40;;;;;;5029508;28;20614;-73
2023/11/30 11:49:36;;;;;;;6.07;3.85;;;3.90;78.40;;;;;;5033641;28;20242;-73
2023/11/30 11:52:03;;;;;;;4.78;2.90;;;3.90;78.50;;;;;;5032992;28;20731;-73
2023/11/30 11:54:30;;;;;;;4.13;3.42;;;3.90;78.50;;;;;;5015872;28;20578;-73
2023/11/30 11:56:58;;;;;;;4.68;2.80;;;3.90;78.40;;;;;;5030260;28;20283;-73
2023/11/30 11:59:27;;;;;;;4.70;2.88;;;3.90;78.60;;;;;;5033665;28;20249;-72
2023/11/30 12:01:55;;;;;;;3.90;2.70;;;3.90;78.80;;;;;;5033825;28;20195;-73
2023/11/30 12:04:29;;;;;;;4.90;3.08;;;3.90;79.00;;;;;;5033905;28;20623;-72
2023/11/30 12:06:56;;;;;;;4.95;2.78;;;3.90;79.20;;;;;;5033794;28;20282;-73
2023/11/30 12:09:23;;;;;;;5.15;3.10;;;3.80;79.20;;;;;;5033999;28;20603;-72
2023/11/30 12:11:51;;;;;;;5.80;3.50;;;3.90;79.60;;;;;;5033818;28;20521;-73
2023/11/30 12:14:20;;;;;;;6.00;4.00;;;3.90;79.60;;;;;;5033381;28;20726;-73
2023/11/30 12:16:47;;;;;;;5.60;3.60;;;3.90;79.70;;;;;;5033676;28;20198;-73
2023/11/30 12:19:17;;;;;;;4.68;3.72;;;4.00;80.00;;;;;;5033290;28;20302;-73
2023/11/30 12:21:45;;;;;;;5.95;3.33;;;4.00;79.60;;;;;;5033647;28;20534;-73
2023/11/30 12:24:13;;;;;;;4.43;3.28;;;4.00;79.80;;;;;;5033251;28;20196;-73
2023/11/30 12:26:40;;;;;;;4.47;3.65;;;4.00;80.90;;;;;;5033644;28;20561;-73
2023/11/30 12:29:07;;;;;;;5.75;2.95;;;3.90;80.10;;;;;;5033091;28;20199;-72
2023/11/30 12:31:36;;;;;;;5.97;3.03;;;4.00;80.50;;;;;;5033284;28;20187;-73
2023/11/30 12:34:04;;;;;;;4.25;3.13;;;4.00;80.20;;;;;;5033481;28;20271;-73
2023/11/30 12:36:31;;;;;;;4.10;3.15;;;4.00;80.10;;;;;;5033092;28;20261;-73
2023/11/30 12:38:58;;;;;;;4.65;3.00;;;4.00;80.30;;;;;;5033104;28;20211;-72
2023/11/30 12:41:24;;;;;;;5.03;3.50;;;4.00;80.30;;;;;;5033129;28;20286;-73
2023/11/30 12:43:51;;;;;;;5.63;3.58;;;4.10;80.20;;;;;;5033274;28;20302;-73
2023/11/30 12:46:18;;;;;;;4.90;3.33;;;4.10;80.50;;;;;;5033321;28;20274;-73
2023/11/30 12:48:46;;;;;;;6.30;3.90;;;4.10;79.90;;;;;;5036334;28;20293;-73
2023/11/30 12:51:13;;;;;;;5.60;4.22;;;4.00;79.70;;;;;;5037599;28;20633;-72
2023/11/30 12:53:40;;;;;;;8.55;5.03;;;4.10;79.70;;;;;;5036731;28;20305;-72
2023/11/30 12:56:08;;;;;;;5.70;4.20;;;4.00;79.60;;;;;;5037086;28;20242;-72
2023/11/30 12:58:36;;;;;;;6.15;4.50;;;4.00;80.00;;;;;;5036906;28;20736;-72
2023/11/30 13:01:03;;;;;;;6.97;4.00;;;4.10;80.40;;;;;;5036936;28;20704;-72